Time;durP1;ratioP1;P1;durP2;ratioP2;P2;SDS_P1;SDS_P2;PMS_P1;PMS_P2;Temp;Humidity;BMP_temperature;BMP_pressure;BME280_temperature;BME280_humidity;BME280_pressure;Samples;Min_cycle;Max_cycle;Signal;HPM_P1;HPM_P2
2022/08/27 00:02:08;;;;;;;4.57;4.18;;;23.00;99.90;;;;;;5073302;28;20227;-84
2022/08/27 00:04:37;;;;;;;9.32;4.25;;;23.00;99.90;;;;;;5073798;28;20261;-84
2022/08/27 00:07:06;;;;;;;3.92;3.33;;;22.90;99.90;;;;;;5073361;28;20240;-84
2022/08/27 00:09:34;;;;;;;4.40;4.00;;;22.80;99.90;;;;;;5073241;28;20205;-84
2022/08/27 00:12:04;;;;;;;4.30;3.90;;;22.80;99.90;;;;;;5073110;28;20232;-84
2022/08/27 00:14:32;;;;;;;4.25;3.80;;;22.80;99.90;;;;;;5074408;28;20215;-83
2022/08/27 00:17:04;;;;;;;5.05;4.32;;;22.80;99.90;;;;;;5074330;28;20207;-84
2022/08/27 00:19:32;;;;;;;4.28;3.90;;;22.80;99.90;;;;;;5073759;28;20243;-84
2022/08/27 00:22:00;;;;;;;3.80;3.38;;;22.80;99.90;;;;;;5073218;28;20228;-84
2022/08/27 00:24:28;;;;;;;4.32;3.92;;;22.80;99.90;;;;;;5073227;28;20265;-84
2022/08/27 00:26:57;;;;;;;5.40;4.18;;;22.80;99.90;;;;;;5073102;28;20287;-84
2022/08/27 00:29:26;;;;;;;4.50;4.10;;;22.70;99.90;;;;;;5073228;28;20205;-84
2022/08/27 00:31:58;;;;;;;4.00;3.58;;;22.70;99.90;;;;;;5072736;28;20232;-83
2022/08/27 00:34:28;;;;;;;4.63;3.60;;;22.70;99.90;;;;;;5073484;28;20213;-84
2022/08/27 00:36:56;;;;;;;4.53;4.18;;;22.70;99.90;;;;;;5073555;28;20284;-84
2022/08/27 00:39:25;;;;;;;4.65;3.33;;;22.70;99.90;;;;;;5073256;28;20205;-84
2022/08/27 00:41:53;;;;;;;4.72;3.90;;;22.70;99.90;;;;;;5073166;28;20221;-84
2022/08/27 00:44:21;;;;;;;5.72;4.32;;;22.60;99.90;;;;;;5073048;28;20212;-84
2022/08/27 00:46:54;;;;;;;5.38;4.32;;;22.60;99.90;;;;;;5073076;28;20264;-84
2022/08/27 00:49:26;;;;;;;4.85;3.75;;;22.50;99.90;;;;;;5072599;28;20268;-84
2022/08/27 00:52:00;;;;;;;4.35;3.85;;;22.50;99.90;;;;;;5072918;28;20221;-84
2022/08/27 00:54:28;;;;;;;4.75;4.03;;;22.50;99.90;;;;;;5072972;28;20212;-84
2022/08/27 00:56:59;;;;;;;4.63;4.07;;;22.40;99.90;;;;;;5072943;28;20295;-84
2022/08/27 00:59:29;;;;;;;4.30;3.90;;;22.40;99.90;;;;;;5073779;28;20258;-84
2022/08/27 01:04:47;;;;;;;5.97;4.32;;;22.40;99.90;;;;;;5073655;28;20200;-84
2022/08/27 01:07:17;;;;;;;5.25;3.85;;;22.40;99.90;;;;;;5073166;28;20292;-84
2022/08/27 01:09:48;;;;;;;4.05;3.70;;;22.40;99.90;;;;;;5072307;28;20197;-84
2022/08/27 01:12:17;;;;;;;3.90;3.60;;;22.40;99.90;;;;;;5073054;28;20229;-84
2022/08/27 01:14:46;;;;;;;3.80;3.50;;;22.40;99.90;;;;;;5073049;28;20209;-84
2022/08/27 01:17:15;;;;;;;4.95;4.25;;;22.50;99.90;;;;;;5073165;28;20211;-84
2022/08/27 01:19:49;;;;;;;3.55;3.25;;;22.40;99.90;;;;;;5073340;28;20237;-84
2022/08/27 01:22:29;;;;;;;6.05;3.67;;;22.40;99.90;;;;;;5073552;28;20309;-84
2022/08/27 01:25:01;;;;;;;5.28;3.75;;;22.50;99.90;;;;;;5073197;28;20212;-84
2022/08/27 01:27:31;;;;;;;5.68;4.53;;;22.50;99.90;;;;;;5072923;28;20243;-84
2022/08/27 01:30:00;;;;;;;4.15;3.38;;;22.50;99.90;;;;;;5073179;28;20269;-84
2022/08/27 01:32:30;;;;;;;3.45;3.15;;;22.50;99.90;;;;;;5072510;28;20316;-84
2022/08/27 01:34:59;;;;;;;4.85;4.07;;;22.50;99.90;;;;;;5076264;28;20213;-84
2022/08/27 01:37:28;;;;;;;4.65;4.20;;;22.50;99.90;;;;;;5076157;28;20219;-84
2022/08/27 01:39:58;;;;;;;7.50;3.88;;;22.40;99.90;;;;;;5076148;28;20209;-84
2022/08/27 01:42:32;;;;;;;5.88;4.88;;;22.40;99.90;;;;;;5076542;28;20231;-84
2022/08/27 01:45:03;;;;;;;8.40;4.15;;;22.50;99.90;;;;;;5077197;28;20244;-84
2022/08/27 01:47:34;;;;;;;4.10;3.80;;;22.40;99.90;;;;;;5077026;28;20292;-84
2022/08/27 01:50:04;;;;;;;4.57;4.20;;;22.40;99.90;;;;;;5075453;28;20205;-84
2022/08/27 01:52:32;;;;;;;6.07;4.10;;;22.30;99.90;;;;;;5075574;28;20235;-84
2022/08/27 01:55:00;;;;;;;4.90;4.40;;;22.30;99.90;;;;;;5076336;28;20292;-84
2022/08/27 01:57:31;;;;;;;4.53;4.13;;;22.30;99.90;;;;;;5076104;28;20197;-84
2022/08/27 01:59:59;;;;;;;4.45;4.03;;;22.20;99.90;;;;;;5075890;28;20288;-84
2022/08/27 02:02:28;;;;;;;5.53;3.33;;;22.20;99.90;;;;;;5076268;28;20227;-83
2022/08/27 02:04:56;;;;;;;3.65;3.35;;;22.20;99.90;;;;;;5075907;28;20209;-83
2022/08/27 02:07:24;;;;;;;3.80;3.45;;;22.20;99.90;;;;;;5075604;28;20300;-83
2022/08/27 02:09:52;;;;;;;4.80;4.40;;;22.20;99.90;;;;;;5074987;28;20269;-83
2022/08/27 02:12:21;;;;;;;4.47;4.07;;;22.20;99.90;;;;;;5075165;28;20317;-84
2022/08/27 02:14:50;;;;;;;4.90;4.32;;;22.20;99.90;;;;;;5074904;28;20225;-84
2022/08/27 02:17:18;;;;;;;3.70;3.40;;;22.20;99.90;;;;;;5074965;28;20292;-83
2022/08/27 02:19:47;;;;;;;5.30;4.00;;;22.20;99.90;;;;;;5075040;28;20201;-83
2022/08/27 02:22:15;;;;;;;4.60;3.80;;;22.20;99.90;;;;;;5074796;28;20231;-83
2022/08/27 02:24:43;;;;;;;7.40;4.10;;;22.10;99.90;;;;;;5074857;28;20284;-84
2022/08/27 02:27:12;;;;;;;6.05;4.53;;;22.00;99.90;;;;;;5074720;28;20283;-83
2022/08/27 02:29:46;;;;;;;4.25;3.85;;;21.90;99.90;;;;;;5074674;28;20209;-83
2022/08/27 02:32:19;;;;;;;4.07;3.67;;;21.90;99.90;;;;;;5074666;28;20315;-87
2022/08/27 02:35:00;;;;;;;5.85;4.45;;;21.80;99.90;;;;;;5074848;28;20272;-87
2022/08/27 02:37:28;;;;;;;5.40;4.13;;;21.70;99.90;;;;;;5074718;28;20197;-88
2022/08/27 02:39:57;;;;;;;3.80;3.50;;;21.70;99.90;;;;;;5074742;28;20241;-87
2022/08/27 02:42:25;;;;;;;4.63;4.20;;;21.70;99.90;;;;;;5074313;28;20232;-86
2022/08/27 02:44:53;;;;;;;4.95;3.63;;;21.70;99.90;;;;;;5074443;28;20288;-86
2022/08/27 02:47:23;;;;;;;5.50;3.85;;;21.70;99.90;;;;;;5074666;28;20201;-87
2022/08/27 02:49:52;;;;;;;5.03;3.50;;;21.70;99.90;;;;;;5074257;28;20225;-87
2022/08/27 02:52:20;;;;;;;3.83;3.53;;;21.70;99.90;;;;;;5074006;28;20319;-87
2022/08/27 02:54:52;;;;;;;6.53;3.58;;;21.70;99.90;;;;;;5074308;28;20228;-86
2022/08/27 02:57:21;;;;;;;4.57;4.00;;;21.70;99.90;;;;;;5074452;28;20209;-87
2022/08/27 02:59:49;;;;;;;5.43;3.92;;;21.70;99.90;;;;;;5074299;28;20204;-87
2022/08/27 03:02:18;;;;;;;4.35;3.95;;;21.70;99.90;;;;;;5074532;28;20297;-87
2022/08/27 03:04:48;;;;;;;3.22;3.03;;;21.70;99.90;;;;;;5074262;28;20262;-87
2022/08/27 03:07:18;;;;;;;4.13;3.35;;;21.70;99.90;;;;;;5074380;28;20213;-87
2022/08/27 03:09:46;;;;;;;4.20;3.80;;;21.70;99.90;;;;;;5074074;28;20212;-87
2022/08/27 03:12:15;;;;;;;3.83;3.45;;;21.70;99.90;;;;;;5073838;28;20308;-87
2022/08/27 03:14:44;;;;;;;3.75;3.45;;;21.70;99.90;;;;;;5073942;28;20253;-86
2022/08/27 03:20:00;;;;;;;6.10;4.05;;;21.80;99.90;;;;;;5074296;28;20224;-87
2022/08/27 03:22:29;;;;;;;3.88;3.45;;;21.80;99.90;;;;;;5075812;28;20280;-88
2022/08/27 03:24:57;;;;;;;4.65;4.25;;;21.80;99.90;;;;;;5075545;28;20217;-87
2022/08/27 03:27:25;;;;;;;4.13;3.83;;;21.70;99.90;;;;;;5093559;28;20185;-88
2022/08/27 03:29:53;;;;;;;3.67;3.38;;;21.70;99.90;;;;;;5096231;28;20189;-87
2022/08/27 03:32:22;;;;;;;4.45;3.97;;;21.70;99.90;;;;;;5073637;28;20316;-87
2022/08/27 03:34:50;;;;;;;3.97;3.55;;;21.70;99.90;;;;;;5073529;28;20312;-86
2022/08/27 03:37:20;;;;;;;4.40;4.00;;;21.70;99.90;;;;;;5073511;28;20276;-87
2022/08/27 03:39:48;;;;;;;4.50;4.10;;;21.70;99.90;;;;;;5073350;28;20209;-87
2022/08/27 03:42:16;;;;;;;5.05;4.40;;;21.70;99.90;;;;;;5073300;28;20221;-87
2022/08/27 03:44:44;;;;;;;4.65;4.22;;;21.70;99.90;;;;;;5073761;28;20248;-87
2022/08/27 03:47:13;;;;;;;6.45;3.97;;;21.70;99.90;;;;;;5073206;28;20296;-87
2022/08/27 03:49:41;;;;;;;4.88;4.45;;;21.70;99.90;;;;;;5073247;28;20284;-87
2022/08/27 03:52:10;;;;;;;4.55;3.85;;;21.70;99.90;;;;;;5073290;28;20229;-87
2022/08/27 03:54:40;;;;;;;4.60;4.20;;;21.70;99.90;;;;;;5072752;28;20232;-89
2022/08/27 03:57:09;;;;;;;4.75;4.32;;;21.60;99.90;;;;;;5072885;28;20284;-87
2022/08/27 03:59:38;;;;;;;3.63;3.33;;;21.60;99.90;;;;;;5073323;28;20213;-88
2022/08/27 04:02:06;;;;;;;5.38;3.75;;;21.60;99.90;;;;;;5073514;28;20259;-88
2022/08/27 04:04:34;;;;;;;4.40;4.00;;;21.50;99.90;;;;;;5073276;28;20233;-87
2022/08/27 04:07:03;;;;;;;6.63;4.32;;;21.50;99.90;;;;;;5072837;28;20201;-87
2022/08/27 04:09:31;;;;;;;5.10;3.88;;;21.50;99.90;;;;;;5072807;28;20296;-87
2022/08/27 04:12:01;;;;;;;5.05;4.55;;;21.50;99.90;;;;;;5072826;28;20224;-86
2022/08/27 04:14:30;;;;;;;5.32;4.18;;;21.40;99.90;;;;;;5073013;28;20217;-88
2022/08/27 04:16:58;;;;;;;6.15;4.28;;;21.40;99.90;;;;;;5073104;28;20211;-87
2022/08/27 04:19:29;;;;;;;5.15;4.22;;;21.40;99.90;;;;;;5072751;28;20209;-87
2022/08/27 04:22:01;;;;;;;4.25;3.85;;;21.40;99.90;;;;;;5073068;28;20260;-87
2022/08/27 04:24:31;;;;;;;5.28;4.55;;;21.40;99.90;;;;;;5072907;28;20220;-87
2022/08/27 04:27:01;;;;;;;3.65;3.35;;;21.40;99.90;;;;;;5072866;28;20211;-87
2022/08/27 04:29:30;;;;;;;4.35;3.95;;;21.40;99.90;;;;;;5072926;28;20211;-86
2022/08/27 04:31:59;;;;;;;3.70;3.40;;;21.40;99.90;;;;;;5072690;28;20304;-87
2022/08/27 04:34:28;;;;;;;5.50;4.05;;;21.40;99.90;;;;;;5072609;28;20225;-87
2022/08/27 04:36:57;;;;;;;4.35;3.95;;;21.40;99.90;;;;;;5072753;28;20208;-87
2022/08/27 04:39:26;;;;;;;3.83;3.47;;;21.40;99.90;;;;;;5072492;28;20208;-87
2022/08/27 04:41:58;;;;;;;4.28;3.90;;;21.40;99.90;;;;;;5073152;28;20228;-87
2022/08/27 04:44:30;;;;;;;4.50;4.13;;;21.40;99.90;;;;;;5073007;28;20205;-88
2022/08/27 04:47:00;;;;;;;4.10;3.80;;;21.40;99.90;;;;;;5072816;28;20287;-88
2022/08/27 04:49:29;;;;;;;3.88;3.58;;;21.40;99.90;;;;;;5072491;28;20284;-88
2022/08/27 04:52:00;;;;;;;4.82;4.03;;;21.40;99.90;;;;;;5072613;28;20229;-87
2022/08/27 04:54:28;;;;;;;3.67;3.38;;;21.40;99.90;;;;;;5071957;28;20217;-87
2022/08/27 04:57:01;;;;;;;4.10;3.75;;;21.30;99.90;;;;;;5072547;28;20284;-87
2022/08/27 04:59:31;;;;;;;4.80;4.25;;;21.40;99.90;;;;;;5072544;28;20208;-87
2022/08/27 05:02:01;;;;;;;3.92;3.63;;;21.30;99.90;;;;;;5072319;28;20235;-87
2022/08/27 05:04:32;;;;;;;5.68;4.05;;;21.30;99.90;;;;;;5072353;28;20238;-87
2022/08/27 05:07:00;;;;;;;3.50;3.30;;;21.30;99.90;;;;;;5072451;28;20287;-86
2022/08/27 05:09:29;;;;;;;5.38;4.55;;;21.40;99.90;;;;;;5075033;28;20240;-87
2022/08/27 05:11:57;;;;;;;4.30;3.90;;;21.40;99.90;;;;;;5076698;28;20229;-87
2022/08/27 05:14:28;;;;;;;6.13;4.00;;;21.40;99.90;;;;;;5076306;28;20296;-87
2022/08/27 05:16:59;;;;;;;4.82;4.07;;;21.40;99.90;;;;;;5076202;28;20201;-87
2022/08/27 05:19:27;;;;;;;3.75;3.50;;;21.50;99.90;;;;;;5076165;28;20277;-87
2022/08/27 05:21:55;;;;;;;4.38;4.00;;;21.50;99.90;;;;;;5076283;28;20309;-88
2022/08/27 05:24:24;;;;;;;5.90;4.55;;;21.50;99.90;;;;;;5076288;28;20208;-88
2022/08/27 05:26:53;;;;;;;5.18;4.15;;;21.60;99.90;;;;;;5076524;28;20212;-88
2022/08/27 05:29:21;;;;;;;11.05;5.00;;;21.70;99.90;;;;;;5075688;28;20288;-88
2022/08/27 05:31:49;;;;;;;5.55;4.50;;;21.70;99.90;;;;;;5075645;28;20239;-88
2022/08/27 05:34:21;;;;;;;6.75;3.88;;;21.80;99.90;;;;;;5076208;28;20208;-88
2022/08/27 05:36:54;;;;;;;3.90;3.50;;;21.90;99.90;;;;;;5076005;28;20209;-88
2022/08/27 05:39:23;;;;;;;4.32;4.00;;;21.90;99.90;;;;;;5075762;28;20264;-88
2022/08/27 05:41:52;;;;;;;5.95;4.55;;;22.00;99.90;;;;;;5075790;28;20295;-88
2022/08/27 05:44:20;;;;;;;5.60;3.60;;;22.10;99.90;;;;;;5075642;28;20205;-88
2022/08/27 05:47:09;;;;;;;5.70;4.90;;;22.20;99.90;;;;;;5075834;28;20208;-87
2022/08/27 05:49:38;;;;;;;4.63;4.30;;;22.30;99.90;;;;;;5075732;28;20265;-88
2022/08/27 05:52:09;;;;;;;4.38;3.33;;;22.30;99.90;;;;;;5075575;28;20225;-87
2022/08/27 05:54:38;;;;;;;3.80;3.50;;;22.40;99.90;;;;;;5075185;28;20236;-88
2022/08/27 05:57:07;;;;;;;4.47;4.07;;;22.50;99.90;;;;;;5075303;28;20258;-88
2022/08/27 06:02:22;;;;;;;4.05;3.25;;;22.70;99.90;;;;;;5075479;28;20229;-88
2022/08/27 06:04:52;;;;;;;3.63;3.30;;;22.90;99.90;;;;;;5075354;28;20201;-87
2022/08/27 06:07:20;;;;;;;3.83;3.53;;;22.90;99.90;;;;;;5075669;28;20211;-88
2022/08/27 06:09:49;;;;;;;3.85;3.55;;;22.90;99.90;;;;;;5075190;28;20205;-87
2022/08/27 06:12:17;;;;;;;3.95;3.55;;;23.00;99.90;;;;;;5075199;28;20312;-88
2022/08/27 06:14:45;;;;;;;3.63;3.28;;;23.10;99.90;;;;;;5075556;28;20221;-88
2022/08/27 06:17:14;;;;;;;4.45;3.85;;;23.20;99.90;;;;;;5075040;28;20288;-88
2022/08/27 06:19:42;;;;;;;3.92;3.55;;;23.20;99.90;;;;;;5074584;28;20205;-88
2022/08/27 06:22:12;;;;;;;3.83;3.50;;;23.20;99.90;;;;;;5075255;28;20225;-88
2022/08/27 06:24:42;;;;;;;4.32;3.92;;;23.40;99.90;;;;;;5075088;28;20205;-88
2022/08/27 06:27:13;;;;;;;3.88;3.58;;;23.40;99.90;;;;;;5074850;28;20300;-87
2022/08/27 06:29:42;;;;;;;4.97;3.53;;;23.40;99.90;;;;;;5074660;28;20224;-87
2022/08/27 06:32:11;;;;;;;3.65;3.35;;;23.40;99.90;;;;;;5074668;28;20259;-88
2022/08/27 06:34:39;;;;;;;5.50;3.55;;;23.40;99.90;;;;;;5075016;28;20228;-87
2022/08/27 06:37:08;;;;;;;4.30;3.70;;;23.40;99.90;;;;;;5074972;28;20231;-87
2022/08/27 06:39:39;;;;;;;4.50;4.10;;;23.40;99.90;;;;;;5074325;28;20235;-87
2022/08/27 06:42:12;;;;;;;7.25;4.25;;;23.40;99.90;;;;;;5074701;28;20304;-88
2022/08/27 06:44:40;;;;;;;7.75;4.18;;;23.50;99.90;;;;;;5074881;28;20239;-88
2022/08/27 06:47:09;;;;;;;4.57;4.00;;;23.60;99.90;;;;;;5074846;28;20221;-88
2022/08/27 06:49:39;;;;;;;3.10;2.90;;;23.60;99.90;;;;;;5074613;28;20293;-87
2022/08/27 06:52:07;;;;;;;3.10;2.90;;;23.60;99.90;;;;;;5075834;28;20223;-88
2022/08/27 06:54:39;;;;;;;3.60;3.30;;;23.70;99.90;;;;;;5076080;28;20205;-88
2022/08/27 06:57:07;;;;;;;3.45;2.92;;;23.80;99.90;;;;;;5098304;28;20229;-88
2022/08/27 06:59:36;;;;;;;5.28;3.58;;;23.90;99.90;;;;;;5089770;28;20201;-89
2022/08/27 07:02:07;;;;;;;4.75;4.32;;;24.00;99.90;;;;;;5074905;28;20233;-88
2022/08/27 07:04:35;;;;;;;4.47;3.33;;;24.00;99.90;;;;;;5074837;28;20209;-89
2022/08/27 07:07:04;;;;;;;4.53;2.90;;;24.20;99.90;;;;;;5073939;28;20280;-88
2022/08/27 07:09:34;;;;;;;5.28;3.25;;;24.30;99.90;;;;;;5073944;28;20256;-88
2022/08/27 07:12:05;;;;;;;2.95;2.72;;;24.40;99.90;;;;;;5074159;28;20231;-88
2022/08/27 07:14:34;;;;;;;3.20;3.00;;;24.40;99.90;;;;;;5073729;28;20260;-88
2022/08/27 07:17:07;;;;;;;3.83;3.53;;;24.50;99.90;;;;;;5073701;28;20229;-88
2022/08/27 07:19:39;;;;;;;4.03;3.58;;;24.60;99.90;;;;;;5073425;28;20209;-88
2022/08/27 07:22:09;;;;;;;5.03;3.45;;;24.60;99.90;;;;;;5073798;28;20221;-88
2022/08/27 07:24:37;;;;;;;3.08;2.88;;;24.50;99.90;;;;;;5073676;28;20262;-88
2022/08/27 07:27:08;;;;;;;3.40;3.10;;;24.50;99.90;;;;;;5073629;28;20209;-88
2022/08/27 07:29:36;;;;;;;4.60;3.75;;;24.50;99.90;;;;;;5073531;28;20280;-88
2022/08/27 07:32:05;;;;;;;2.97;2.78;;;24.40;99.90;;;;;;5072667;28;20316;-88
2022/08/27 07:34:33;;;;;;;4.75;3.20;;;24.50;99.90;;;;;;5073465;28;20239;-88
2022/08/27 07:37:01;;;;;;;4.78;4.10;;;24.60;99.90;;;;;;5073307;28;20255;-88
2022/08/27 07:39:29;;;;;;;4.80;4.28;;;24.50;99.90;;;;;;5073510;28;20295;-88
2022/08/27 07:44:45;;;;;;;3.13;2.92;;;24.60;99.90;;;;;;5073788;28;20200;-88
2022/08/27 07:47:13;;;;;;;4.40;3.97;;;24.60;99.90;;;;;;5073270;28;20193;-87
2022/08/27 07:49:41;;;;;;;3.90;3.55;;;24.70;99.90;;;;;;5073035;28;20292;-86
2022/08/27 07:52:10;;;;;;;3.75;3.53;;;24.80;99.90;;;;;;5073275;28;20233;-87
2022/08/27 07:54:40;;;;;;;13.18;3.42;;;24.90;99.90;;;;;;5073175;28;20260;-88
2022/08/27 07:57:08;;;;;;;3.60;3.20;;;25.00;99.90;;;;;;5072942;28;20217;-87
2022/08/27 07:59:37;;;;;;;4.50;3.80;;;25.20;99.90;;;;;;5073227;28;20209;-87
2022/08/27 08:02:07;;;;;;;3.85;3.50;;;25.30;99.90;;;;;;5073056;28;20312;-87
2022/08/27 08:04:35;;;;;;;3.67;3.40;;;25.40;99.90;;;;;;5073243;28;20196;-88
2022/08/27 08:07:04;;;;;;;4.28;3.95;;;25.40;99.90;;;;;;5073067;28;20284;-87
2022/08/27 08:09:33;;;;;;;5.63;3.50;;;25.60;99.90;;;;;;5072549;28;20264;-87
2022/08/27 08:12:01;;;;;;;3.40;3.17;;;25.90;99.90;;;;;;5073326;28;20284;-87
2022/08/27 08:14:31;;;;;;;5.88;3.65;;;26.20;99.90;;;;;;5072799;28;20205;-87
2022/08/27 08:17:01;;;;;;;3.78;3.47;;;26.60;99.90;;;;;;5072993;28;20217;-87
2022/08/27 08:19:32;;;;;;;5.97;4.00;;;27.10;99.90;;;;;;5072618;28;20209;-87
2022/08/27 08:22:00;;;;;;;4.85;3.83;;;27.70;99.90;;;;;;5072844;28;20307;-87
2022/08/27 08:24:33;;;;;;;3.90;3.60;;;28.20;99.90;;;;;;5073138;28;20217;-87
2022/08/27 08:27:02;;;;;;;4.45;3.40;;;28.70;99.90;;;;;;5072857;28;20209;-88
2022/08/27 08:29:34;;;;;;;7.55;3.17;;;28.90;99.90;;;;;;5072625;28;20239;-87
2022/08/27 08:32:03;;;;;;;3.55;3.22;;;29.00;99.90;;;;;;5072644;28;20327;-87
2022/08/27 08:34:34;;;;;;;3.65;3.35;;;28.90;99.90;;;;;;5072713;28;20201;-87
2022/08/27 08:37:03;;;;;;;3.55;3.00;;;28.90;99.90;;;;;;5073090;28;20278;-87
2022/08/27 08:39:32;;;;;;;6.30;3.83;;;29.20;99.90;;;;;;5072525;28;20208;-87
2022/08/27 08:42:03;;;;;;;4.03;3.50;;;29.60;99.90;;;;;;5073429;28;20221;-87
2022/08/27 08:44:35;;;;;;;3.67;3.40;;;30.10;99.90;;;;;;5076796;28;20207;-87
2022/08/27 08:47:08;;;;;;;3.50;3.20;;;30.80;99.90;;;;;;5077840;28;20200;-87
2022/08/27 08:49:47;;;;;;;5.20;3.80;;;31.10;99.90;;;;;;5078276;28;20242;-87
2022/08/27 08:52:28;;;;;;;3.42;3.22;;;31.30;99.90;;;;;;5077295;28;20315;-87
2022/08/27 08:55:08;;;;;;;3.63;3.33;;;31.30;99.90;;;;;;5076914;28;20253;-88
2022/08/27 08:57:40;;;;;;;6.10;2.95;;;31.70;99.90;;;;;;5076582;28;20224;-87
2022/08/27 09:00:13;;;;;;;3.33;3.10;;;31.90;99.90;;;;;;5076875;28;20263;-88
2022/08/27 09:02:49;;;;;;;3.40;3.10;;;32.00;99.90;;;;;;5077059;28;20303;-88
2022/08/27 09:05:19;;;;;;;6.15;4.00;;;32.20;99.90;;;;;;5078329;28;20218;-88
2022/08/27 09:08:02;;;;;;;4.18;3.80;;;32.30;99.90;;;;;;5078622;28;20212;-88
2022/08/27 09:10:58;;;;;;;3.55;3.25;;;32.30;99.90;;;;;;5078192;28;20210;-87
2022/08/27 09:13:31;;;;;;;3.40;3.10;;;32.30;99.90;;;;;;5079062;28;20230;-88
2022/08/27 09:16:03;;;;;;;3.83;3.08;;;32.60;99.30;;;;;;5078418;28;20201;-88
2022/08/27 09:18:33;;;;;;;4.03;3.50;;;;;;;;;;5077795;28;20263;-87
2022/08/27 09:21:09;;;;;;;3.50;3.20;;;33.30;97.70;;;;;;5078551;28;20214;-88
2022/08/27 09:23:45;;;;;;;3.58;3.28;;;33.70;98.80;;;;;;5077761;28;20286;-88
2022/08/27 09:26:25;;;;;;;7.82;3.47;;;34.30;96.50;;;;;;5078709;28;20212;-88
2022/08/27 09:29:17;;;;;;;4.55;3.40;;;34.60;95.60;;;;;;5078099;28;20214;-88
2022/08/27 09:31:57;;;;;;;3.65;3.00;;;34.70;95.00;;;;;;5079806;28;20292;-88
2022/08/27 09:34:28;;;;;;;5.68;3.50;;;34.60;94.80;;;;;;5079606;28;20264;-88
2022/08/27 09:37:04;;;;;;;4.20;3.80;;;34.40;95.30;;;;;;5077994;28;20303;-87
2022/08/27 09:39:44;;;;;;;4.57;4.18;;;34.40;94.70;;;;;;5077665;28;20291;-88
2022/08/27 09:42:25;;;;;;;3.70;3.40;;;33.90;94.50;;;;;;5077652;28;20311;-88
2022/08/27 09:44:54;;;;;;;3.95;3.60;;;33.50;95.60;;;;;;5077880;28;20236;-88
2022/08/27 09:47:23;;;;;;;3.95;3.65;;;33.70;95.50;;;;;;5077494;28;20196;-88
2022/08/27 09:50:02;;;;;;;4.07;3.67;;;33.70;95.00;;;;;;5077254;28;20205;-88
2022/08/27 09:52:38;;;;;;;8.85;3.80;;;33.10;95.60;;;;;;5077680;28;20228;-88
2022/08/27 09:55:07;;;;;;;4.05;3.65;;;33.30;95.90;;;;;;5076823;28;20214;-88
2022/08/27 09:57:40;;;;;;;4.05;3.42;;;33.80;95.00;;;;;;5077933;28;20220;-88
2022/08/27 10:00:15;;;;;;;6.20;4.00;;;33.90;93.50;;;;;;5077598;28;20231;-88
2022/08/27 10:02:52;;;;;;;4.45;3.88;;;33.00;93.70;;;;;;5078444;28;20259;-88
2022/08/27 10:05:27;;;;;;;4.93;4.53;;;32.70;94.10;;;;;;5077207;28;20200;-88
2022/08/27 10:08:01;;;;;;;4.60;3.53;;;32.30;94.50;;;;;;5076872;28;20223;-88
2022/08/27 10:10:40;;;;;;;4.03;3.63;;;31.90;94.00;;;;;;5077188;28;20205;-88
2022/08/27 10:13:15;;;;;;;3.85;3.55;;;32.20;94.20;;;;;;5077691;28;20247;-88
2022/08/27 10:15:54;;;;;;;5.60;4.32;;;32.20;94.30;;;;;;5077113;28;20292;-89
2022/08/27 10:18:31;;;;;;;4.50;3.63;;;32.40;94.10;;;;;;5077256;28;20224;-88
2022/08/27 10:21:06;;;;;;;4.20;3.67;;;32.90;94.60;;;;;;5077772;28;20260;-88
2022/08/27 10:23:41;;;;;;;3.90;3.08;;;33.10;93.90;;;;;;5076919;28;20220;-88
2022/08/27 10:26:19;;;;;;;4.10;3.70;;;33.00;93.70;;;;;;5076721;28;20208;-88
2022/08/27 10:29:00;;;;;;;4.05;3.65;;;32.90;94.00;;;;;;5075845;28;20264;-88
2022/08/27 10:31:38;;;;;;;4.32;3.72;;;33.20;94.10;;;;;;5076763;28;20225;-88
2022/08/27 10:34:24;;;;;;;4.18;3.78;;;33.40;94.00;;;;;;5076720;28;20197;-88
2022/08/27 10:37:04;;;;;;;3.67;3.38;;;34.00;93.90;;;;;;5076661;28;20205;-88
2022/08/27 10:39:49;;;;;;;4.32;3.92;;;34.30;91.90;;;;;;5076332;28;20227;-88
2022/08/27 10:42:26;;;;;;;4.70;4.30;;;34.00;92.50;;;;;;5076572;28;20293;-88
2022/08/27 10:45:04;;;;;;;3.60;3.30;;;33.60;92.10;;;;;;5076298;28;20216;-88
2022/08/27 10:47:54;;;;;;;4.22;3.83;;;33.70;93.30;;;;;;5077036;28;20211;-88
2022/08/27 10:50:28;;;;;;;4.57;3.72;;;33.70;92.30;;;;;;5078072;28;20205;-89
2022/08/27 10:53:02;;;;;;;4.93;3.90;;;33.90;92.60;;;;;;5079535;28;20243;-88
2022/08/27 10:55:34;;;;;;;5.03;3.92;;;34.20;92.40;;;;;;5082715;28;20211;-88
2022/08/27 10:58:26;;;;;;;3.53;3.25;;;34.30;91.60;;;;;;5098634;28;20338;-89
2022/08/27 11:01:02;;;;;;;3.85;3.55;;;34.70;91.50;;;;;;5094647;28;20208;-88
2022/08/27 11:03:36;;;;;;;4.15;3.72;;;34.70;90.90;;;;;;5077272;28;20269;-89
2022/08/27 11:06:16;;;;;;;5.25;3.70;;;34.80;91.50;;;;;;5076337;28;20231;-89
2022/08/27 11:08:50;;;;;;;5.00;3.92;;;34.70;90.70;;;;;;5075911;28;20268;-89
2022/08/27 11:11:27;;;;;;;4.70;3.78;;;34.80;90.50;;;;;;5075882;28;20242;-89
2022/08/27 11:14:24;;;;;;;3.50;3.20;;;35.00;90.20;;;;;;5074392;28;20205;-89
2022/08/27 11:16:56;;;;;;;4.07;3.67;;;34.50;90.70;;;;;;5074210;28;20196;-89
2022/08/27 11:19:43;;;;;;;10.40;3.72;;;34.30;90.60;;;;;;5073247;28;20224;-89
2022/08/27 11:22:17;;;;;;;3.67;3.38;;;34.20;90.30;;;;;;5073908;28;20307;-88
2022/08/27 11:24:57;;;;;;;5.13;4.32;;;33.90;90.40;;;;;;5073968;28;20292;-89
2022/08/27 11:27:31;;;;;;;3.75;3.45;;;34.00;90.80;;;;;;5073867;28;20268;-89
2022/08/27 11:30:05;;;;;;;4.47;3.80;;;34.60;90.10;;;;;;5073388;28;20208;-83
2022/08/27 11:32:45;;;;;;;4.20;3.80;;;34.90;90.00;;;;;;5073713;28;20238;-83
2022/08/27 11:35:18;;;;;;;8.10;3.88;;;35.20;90.20;;;;;;5073558;28;20203;-83
2022/08/27 11:38:11;;;;;;;4.18;3.80;;;34.70;88.00;;;;;;5073429;28;20220;-83
2022/08/27 11:40:52;;;;;;;5.13;3.55;;;34.90;88.80;;;;;;5073311;28;20200;-83
2022/08/27 11:43:24;;;;;;;15.88;4.20;;;34.70;89.10;;;;;;5073299;28;20213;-84
2022/08/27 11:45:56;;;;;;;4.18;3.30;;;34.70;89.10;;;;;;5073458;28;20211;-83
2022/08/27 11:48:26;;;;;;;3.47;3.17;;;34.90;90.00;;;;;;5073290;28;20200;-83
2022/08/27 11:50:58;;;;;;;5.45;3.58;;;34.90;88.10;;;;;;5073220;28;20259;-83
2022/08/27 11:53:29;;;;;;;3.70;3.28;;;35.10;88.20;;;;;;5073083;28;20287;-83
2022/08/27 11:56:09;;;;;;;3.85;3.35;;;35.30;87.20;;;;;;5073331;28;20203;-84
2022/08/27 11:58:39;;;;;;;4.38;3.53;;;35.40;88.10;;;;;;5072720;28;20216;-84
2022/08/27 12:01:26;;;;;;;3.78;3.17;;;35.50;88.30;;;;;;5073205;28;20301;-83
2022/08/27 12:04:02;;;;;;;4.20;3.90;;;36.20;84.50;;;;;;5072959;28;20295;-83
2022/08/27 12:06:41;;;;;;;4.22;3.88;;;36.80;81.50;;;;;;5073152;28;20239;-83
2022/08/27 12:09:16;;;;;;;3.08;2.88;;;37.30;82.00;;;;;;5072869;28;20196;-83
2022/08/27 12:11:55;;;;;;;5.18;3.70;;;37.50;79.20;;;;;;5073332;28;20331;-83
2022/08/27 12:14:39;;;;;;;3.58;3.28;;;37.30;78.30;;;;;;5072944;28;20207;-83
2022/08/27 12:17:16;;;;;;;3.45;3.20;;;37.10;79.80;;;;;;5072456;28;20224;-83
2022/08/27 12:19:55;;;;;;;2.70;2.50;;;37.10;78.00;;;;;;5072584;28;20223;-83
2022/08/27 12:25:24;;;;;;;3.40;3.08;;;35.40;80.20;;;;;;5072705;28;20292;-83
2022/08/27 12:27:57;;;;;;;3.50;3.30;;;34.70;82.30;;;;;;5072576;28;20288;-83
2022/08/27 12:30:31;;;;;;;4.10;3.70;;;34.30;84.70;;;;;;5072488;28;20275;-83
2022/08/27 12:33:08;;;;;;;4.75;3.30;;;34.20;82.40;;;;;;5072693;28;20236;-83
2022/08/27 12:35:44;;;;;;;3.85;3.17;;;33.80;84.10;;;;;;5073103;28;20239;-83
2022/08/27 12:38:17;;;;;;;4.40;3.60;;;34.10;84.20;;;;;;5072635;28;20219;-83
2022/08/27 12:40:50;;;;;;;4.05;3.65;;;34.10;83.10;;;;;;5072904;28;20219;-83
2022/08/27 12:43:23;;;;;;;5.13;3.38;;;34.20;84.50;;;;;;5072711;28;20285;-83
2022/08/27 12:45:58;;;;;;;3.75;3.38;;;34.30;82.60;;;;;;5072878;28;20203;-83
2022/08/27 12:48:29;;;;;;;7.65;3.50;;;34.70;82.00;;;;;;5072492;28;20204;-83
2022/08/27 12:51:01;;;;;;;2.55;2.42;;;34.90;80.20;;;;;;5072582;28;20264;-83
2022/08/27 12:53:41;;;;;;;3.72;3.42;;;35.20;78.30;;;;;;5072663;28;20260;-83
2022/08/27 12:56:49;;;;;;;4.38;3.97;;;35.30;79.80;;;;;;5072889;28;20275;-83
2022/08/27 12:59:55;;;;;;;4.05;3.65;;;35.40;80.20;;;;;;5072244;28;20310;-83
2022/08/27 13:02:39;;;;;;;4.00;3.60;;;35.70;81.10;;;;;;5072681;28;20226;-83
2022/08/27 13:05:10;;;;;;;3.60;3.30;;;36.00;81.20;;;;;;5072621;28;20279;-83
2022/08/27 13:07:41;;;;;;;3.50;3.20;;;36.30;78.80;;;;;;5072540;28;20201;-83
2022/08/27 13:10:14;;;;;;;6.57;3.63;;;36.20;79.40;;;;;;5072431;28;20196;-83
2022/08/27 13:12:44;;;;;;;3.15;2.92;;;35.90;78.70;;;;;;5072424;28;20248;-83
2022/08/27 13:15:15;;;;;;;4.35;3.40;;;35.80;79.30;;;;;;5072281;28;20193;-83
2022/08/27 13:17:46;;;;;;;5.30;3.28;;;35.60;78.80;;;;;;5072230;28;20204;-83
2022/08/27 13:20:20;;;;;;;4.03;3.70;;;35.50;79.00;;;;;;5071855;28;20231;-83
2022/08/27 13:22:49;;;;;;;4.82;3.50;;;35.10;79.40;;;;;;5072058;28;20224;-83
2022/08/27 13:25:24;;;;;;;3.92;3.53;;;34.90;82.10;;;;;;5072362;28;20283;-83
2022/08/27 13:27:55;;;;;;;3.53;3.28;;;34.60;80.90;;;;;;5072311;28;20291;-83